createdAt,value
2022-09-21T00:02:08.590Z,7.42
2022-09-21T00:06:14.661Z,7.36
2022-09-21T00:10:20.114Z,7.49
2022-09-21T00:14:22.934Z,7.62
2022-09-21T00:18:26.181Z,7.66
2022-09-21T00:22:30.409Z,7.51
2022-09-21T00:26:33.376Z,7.41
2022-09-21T00:30:36.185Z,7.44
2022-09-21T00:34:39.034Z,7.27
2022-09-21T00:38:43.829Z,7.24
2022-09-21T00:42:46.634Z,7.24
2022-09-21T00:46:51.796Z,7.19
2022-09-21T00:50:58.877Z,7.18
2022-09-21T00:55:07.161Z,7.25
2022-09-21T00:59:10.946Z,7.08
2022-09-21T01:03:14.542Z,7.14
2022-09-21T01:07:21.030Z,7.07
2022-09-21T01:11:35.265Z,6.84
2022-09-21T01:15:46.727Z,6.83
2022-09-21T01:20:32.463Z,6.70
2022-09-21T01:24:49.812Z,6.81
2022-09-21T01:29:13.603Z,6.95
2022-09-21T01:33:22.820Z,7.03
2022-09-21T01:37:30.424Z,6.75
2022-09-21T01:41:36.068Z,6.80
2022-09-21T01:45:44.598Z,6.79
2022-09-21T01:49:50.864Z,6.54
2022-09-21T01:53:57.528Z,6.59
2022-09-21T01:58:06.406Z,6.45
2022-09-21T02:02:16.623Z,6.41
2022-09-21T02:06:20.251Z,6.45
2022-09-21T02:10:28.652Z,6.40
2022-09-21T02:14:33.552Z,6.40
2022-09-21T02:18:46.829Z,6.30
2022-09-21T02:23:00.933Z,6.26
2022-09-21T02:27:06.916Z,6.20
2022-09-21T02:31:17.859Z,6.05
2022-09-21T02:35:32.252Z,6.12
2022-09-21T02:39:39.091Z,6.27
2022-09-21T02:43:45.794Z,6.34
2022-09-21T02:47:53.239Z,6.29
2022-09-21T02:52:01.437Z,6.06
2022-09-21T02:56:07.532Z,5.99
2022-09-21T03:00:12.154Z,6.23
2022-09-21T03:04:14.889Z,6.07
2022-09-21T03:08:19.826Z,6.07
2022-09-21T03:12:22.628Z,6.14
2022-09-21T03:16:25.533Z,5.98
2022-09-21T03:20:28.368Z,5.84
2022-09-21T03:24:47.785Z,5.87
2022-09-21T03:28:51.076Z,5.74
2022-09-21T03:32:54.818Z,5.75
2022-09-21T03:36:57.501Z,5.72
2022-09-21T03:41:01.640Z,5.69
2022-09-21T03:45:04.771Z,5.85
2022-09-21T03:49:07.593Z,5.56
2022-09-21T03:53:11.246Z,5.58
2022-09-21T03:57:15.470Z,5.58
2022-09-21T04:01:18.206Z,5.48
2022-09-21T04:05:21.308Z,5.54
2022-09-21T04:09:24.136Z,5.63
2022-09-21T04:13:28.300Z,5.55
2022-09-21T04:17:31.685Z,5.50
2022-09-21T04:21:34.520Z,5.55
2022-09-21T04:25:37.269Z,5.57
2022-09-21T04:29:41.941Z,5.61
2022-09-21T04:33:44.848Z,5.67
2022-09-21T04:37:47.677Z,5.67
2022-09-21T04:41:50.356Z,5.66
2022-09-21T04:45:54.530Z,5.70
2022-09-21T04:49:57.485Z,5.78
2022-09-21T04:54:00.234Z,5.95
2022-09-21T04:58:03.067Z,5.88
2022-09-21T05:02:07.120Z,5.89
2022-09-21T05:06:13.543Z,5.98
2022-09-21T05:10:16.642Z,6.00
2022-09-21T05:14:19.506Z,5.98
2022-09-21T05:18:23.680Z,5.97
2022-09-21T05:22:26.557Z,6.07
2022-09-21T05:26:29.262Z,6.15
2022-09-21T05:30:32.767Z,6.17
2022-09-21T05:34:47.107Z,6.13
2022-09-21T05:38:50.420Z,6.10
2022-09-21T05:42:53.761Z,6.13
2022-09-21T05:47:02.761Z,6.43
2022-09-21T05:51:13.798Z,6.50
2022-09-21T05:55:28.450Z,6.61
2022-09-21T05:59:42.901Z,6.81
2022-09-21T06:03:48.663Z,6.87
2022-09-21T06:07:52.662Z,7.04
2022-09-21T06:11:55.377Z,7.26
2022-09-21T06:15:58.583Z,7.38
2022-09-21T06:20:01.287Z,7.55
2022-09-21T06:24:06.053Z,7.84
2022-09-21T06:28:12.054Z,8.00
2022-09-21T06:32:14.747Z,8.11
2022-09-21T06:36:18.004Z,8.38
2022-09-21T06:40:22.575Z,8.62
2022-09-21T06:44:25.751Z,8.77
2022-09-21T06:48:29.457Z,8.86
2022-09-21T06:52:33.251Z,9.20
2022-09-21T06:56:37.523Z,9.39
2022-09-21T07:00:40.353Z,9.52
2022-09-21T07:04:43.242Z,9.84
2022-09-21T07:13:10.480Z,10.40
2022-09-21T07:17:16.010Z,10.31
2022-09-21T07:21:18.923Z,10.54
2022-09-21T07:25:21.609Z,10.80
2022-09-21T07:29:26.062Z,10.71
2022-09-21T07:33:32.689Z,11.43
2022-09-21T07:37:38.070Z,12.05
2022-09-21T07:41:40.787Z,12.52
2022-09-21T07:45:44.865Z,12.77
2022-09-21T07:49:48.105Z,13.69
2022-09-21T07:53:56.867Z,13.47
2022-09-21T07:58:17.304Z,13.66
2022-09-21T08:02:21.602Z,15.54
2022-09-21T08:06:25.545Z,16.05
2022-09-21T08:10:28.917Z,15.83
2022-09-21T08:14:32.024Z,15.31
2022-09-21T08:18:40.098Z,16.45
2022-09-21T08:22:42.961Z,16.68
2022-09-21T08:26:46.306Z,16.24
2022-09-21T08:30:49.106Z,16.08
2022-09-21T08:34:53.160Z,17.96
2022-09-21T08:38:57.068Z,16.91
2022-09-21T08:43:04.882Z,16.70
2022-09-21T08:47:13.373Z,16.81
2022-09-21T08:51:23.999Z,18.56
2022-09-21T08:55:26.898Z,18.12
2022-09-21T08:59:29.833Z,18.77
2022-09-21T09:04:00.562Z,17.15
2022-09-21T09:08:33.136Z,18.39
2022-09-21T09:12:49.740Z,17.66
2022-09-21T09:17:11.051Z,18.61
2022-09-21T09:21:29.383Z,17.41
2022-09-21T09:25:38.881Z,16.90
2022-09-21T09:29:46.998Z,18.12
2022-09-21T09:33:56.485Z,17.44
2022-09-21T09:38:06.165Z,17.59
2022-09-21T09:42:25.617Z,17.67
2022-09-21T09:46:34.885Z,20.21
2022-09-21T09:50:40.974Z,19.67
2022-09-21T09:54:44.637Z,19.70
2022-09-21T09:58:51.556Z,19.23
2022-09-21T10:02:55.994Z,18.11
2022-09-21T10:06:58.746Z,18.05
2022-09-21T10:11:01.702Z,19.69
2022-09-21T10:15:12.851Z,19.86
2022-09-21T10:19:18.705Z,18.27
2022-09-21T10:23:21.572Z,20.37
2022-09-21T10:27:28.579Z,20.49
2022-09-21T10:31:33.158Z,18.48
2022-09-21T10:35:50.756Z,20.21
2022-09-21T10:39:53.641Z,19.64
2022-09-21T10:43:56.397Z,18.12
2022-09-21T10:48:09.757Z,18.79
2022-09-21T10:52:12.659Z,20.31
2022-09-21T10:56:19.136Z,20.88
2022-09-21T11:00:35.680Z,21.42
2022-09-21T11:04:47.160Z,20.13
2022-09-21T11:08:56.514Z,22.08
2022-09-21T11:13:19.022Z,20.02
2022-09-21T11:17:34.285Z,18.99
2022-09-21T11:21:45.171Z,19.67
2022-09-21T11:25:54.913Z,21.80
2022-09-21T11:30:03.161Z,19.09
2022-09-21T11:34:26.155Z,21.36
2022-09-21T11:45:01.823Z,22.66
2022-09-21T11:49:27.808Z,20.83
2022-09-21T11:53:46.855Z,20.28
2022-09-21T11:57:55.361Z,20.56
2022-09-21T12:02:21.490Z,20.35
2022-09-21T12:06:42.081Z,21.87
2022-09-21T12:10:56.182Z,19.47
2022-09-21T12:15:08.230Z,20.62
2022-09-21T16:51:24.857Z,19.45
2022-09-21T16:55:29.336Z,19.31
2022-09-21T17:06:02.654Z,16.88
2022-09-21T17:10:13.988Z,17.37
2022-09-21T17:14:17.009Z,16.25
2022-09-21T17:18:19.691Z,15.44
2022-09-21T17:22:23.364Z,15.06
2022-09-21T17:26:28.273Z,14.67
2022-09-21T17:30:32.131Z,14.48
2022-09-21T17:34:35.291Z,14.29
2022-09-21T17:38:38.211Z,14.13
2022-09-21T17:42:46.607Z,13.96
2022-09-21T17:46:59.079Z,13.88
2022-09-21T17:51:02.450Z,13.77
2022-09-21T17:55:08.642Z,13.58
2022-09-21T17:59:26.383Z,13.18
2022-09-21T18:03:31.051Z,12.95
2022-09-21T18:07:34.872Z,12.67
2022-09-21T18:12:02.698Z,12.48
2022-09-21T18:16:19.974Z,12.32
2022-09-21T18:20:32.420Z,12.12
2022-09-21T18:24:35.766Z,12.03
2022-09-21T18:28:42.341Z,11.88
2022-09-21T18:33:52.916Z,11.80
2022-09-21T18:38:13.110Z,11.57
2022-09-21T18:42:40.401Z,11.44
2022-09-21T18:46:56.996Z,11.31
2022-09-21T18:51:09.782Z,11.27
2022-09-21T18:55:26.718Z,11.03
2022-09-21T18:59:32.001Z,10.87
2022-09-21T19:03:38.026Z,10.94
2022-09-21T19:07:48.678Z,10.71
2022-09-21T19:12:00.526Z,10.57
2022-09-21T19:16:12.631Z,10.49
2022-09-21T19:20:32.372Z,10.43
2022-09-21T19:24:42.771Z,10.22
2022-09-21T19:29:04.522Z,10.06
2022-09-21T19:33:45.886Z,10.05
2022-09-21T19:37:49.658Z,10.00
2022-09-21T19:42:04.520Z,9.96
2022-09-21T19:46:20.149Z,9.83
2022-09-21T19:50:27.652Z,9.81
2022-09-21T19:54:48.628Z,9.78
2022-09-21T19:59:09.723Z,9.69
2022-09-21T20:03:19.528Z,9.54
2022-09-21T20:07:31.400Z,9.49
2022-09-21T20:11:45.903Z,9.41
2022-09-21T20:15:52.820Z,9.37
2022-09-21T20:20:08.669Z,9.30
2022-09-21T20:24:21.230Z,9.20
2022-09-21T20:28:25.124Z,9.06
2022-09-21T20:32:27.981Z,9.02
2022-09-21T20:36:32.865Z,8.94
2022-09-21T20:40:36.198Z,8.89
2022-09-21T20:44:39.049Z,8.81
2022-09-21T20:48:42.090Z,8.75
2022-09-21T20:52:46.654Z,8.76
2022-09-21T20:56:50.175Z,8.68
2022-09-21T21:00:58.561Z,8.66
2022-09-21T21:05:01.742Z,8.60
2022-09-21T21:09:05.997Z,8.49
2022-09-21T21:13:08.833Z,8.47
2022-09-21T21:17:12.022Z,8.45
2022-09-21T21:21:15.081Z,8.41
2022-09-21T21:25:19.547Z,8.34
2022-09-21T21:29:22.768Z,8.39
2022-09-21T21:33:25.570Z,8.27
2022-09-21T21:37:30.990Z,8.25
2022-09-21T21:41:35.188Z,8.16
2022-09-21T21:45:38.372Z,8.17
2022-09-21T21:49:41.346Z,8.09
2022-09-21T21:53:44.697Z,8.05
2022-09-21T21:57:48.878Z,8.05
2022-09-21T22:01:53.233Z,7.92
2022-09-21T22:05:56.948Z,7.84
2022-09-21T22:09:59.697Z,7.77
2022-09-21T22:14:05.357Z,7.71
2022-09-21T22:18:08.151Z,7.69
2022-09-21T22:22:10.933Z,7.64
2022-09-21T22:26:16.135Z,7.62
2022-09-21T22:30:20.287Z,7.73
2022-09-21T22:34:23.098Z,7.73
2022-09-21T22:38:29.798Z,7.79
2022-09-21T22:42:33.212Z,7.79
2022-09-21T22:46:38.182Z,7.53
2022-09-21T22:50:41.128Z,7.45
2022-09-21T22:54:44.051Z,7.44
2022-09-21T22:58:48.791Z,7.33
2022-09-21T23:02:56.043Z,7.32
2022-09-21T23:06:58.800Z,7.22
2022-09-21T23:11:10.768Z,7.14
2022-09-21T23:15:14.645Z,7.16
2022-09-21T23:19:18.832Z,7.11
2022-09-21T23:23:22.059Z,7.08
2022-09-21T23:27:25.124Z,7.00
2022-09-21T23:31:28.840Z,6.95
2022-09-21T23:35:33.074Z,6.99
2022-09-21T23:39:35.874Z,6.97
2022-09-21T23:43:39.866Z,7.16
2022-09-21T23:47:42.776Z,6.96
2022-09-21T23:51:47.413Z,6.96
2022-09-21T23:55:50.235Z,6.98
2022-09-21T23:59:53.079Z,6.86
